Tiempo atmosférico en la estación meteorológica de Aller, Asturias (750 m.)



Fecha
DESCASC
Temp. máxima en grados centígrados (hora)
DESCASC
Temp. mínima en grados centígrados (hora)
DESCASC
Temp. media en grados centígrados
DESCASC
Racha de viento máxima en m/sg (hora)
DESCASC
Velocidad máxima media en intervalos de 10 minutos(hora)
DESCASC
Precipitaciones diarias en mm
DESCASC
Precipitaciones de 00:00 a 06:00 en mm
DESCASC
Precipitaciones de 06:00 a 12:00 en mm
DESCASC
Precipitaciones de 12:00 a 18:00 en mm
DESCASC
Precipitaciones de 18:00 a 24:00 en mm
DESCASC

Gráficas

Temp. máximas Temp. mínimas Temp. medias Precipitaciones Rachas de viento máximas Velocidades máximas media en intervalos de 10 minutos

Datos horarios

Fecha y hora oficial Temperatura (ºC) Velocidad del viento (km/h) Dirección del viento Racha (km/h) Dirección de racha Precipitación (mm) Presión (hPa) Tendencia (hPa) Humedad (%)
2021-03-05 23:00:00 6.9 4 Norte 12 Norte 0 -- -- 90
2021-03-05 22:00:00 7.3 4 Norte 8 Norte 0 -- -- 90
2021-03-05 21:00:00 7.7 6 Norte 10 Norte 0 -- -- 88
2021-03-05 20:00:00 8.1 7 Norte 13 Noroeste 0 -- -- 89
2021-03-05 19:00:00 8.8 6 Norte 11 Noroeste 0 -- -- 85
2021-03-05 18:00:00 9.2 7 Norte 14 Noroeste 0 -- -- 82
2021-03-05 17:00:00 9.7 6 Noroeste 12 Noroeste 0 -- -- 79
2021-03-05 16:00:00 9.9 8 Noroeste 18 Noroeste 0 -- -- 77
2021-03-05 15:00:00 9.7 10 Noroeste 21 Noroeste 0 -- -- 81
2021-03-05 14:00:00 9.9 11 Noroeste 22 Noroeste 0 -- -- 78
2021-03-05 13:00:00 11 15 Noroeste 21 Noroeste 0 -- -- 75
2021-03-05 12:00:00 9.5 9 Noroeste 19 Noroeste 0 -- -- 80
2021-03-05 11:00:00 7.9 9 Norte 17 Norte 0 -- -- 82
2021-03-05 10:00:00 4.2 0 Calma 6 Sudeste 0 -- -- 94
2021-03-05 09:00:00 3.1 5 Sudeste 9 Sudeste 0 -- -- 95
2021-03-05 08:00:00 2.5 4 Sudeste 9 Sudeste 0 -- -- 95
2021-03-05 07:00:00 3.1 5 Sudeste 10 Sudeste 0 -- -- 94
2021-03-05 06:00:00 3.4 3 Sudeste 10 Sudeste 0 -- -- 93
2021-03-05 05:00:00 3.6 6 Sudeste 9 Sudeste 0 -- -- 93
2021-03-05 04:00:00 4.1 3 Sudeste 10 Sudeste 0 -- -- 92
2021-03-05 03:00:00 4.3 4 Sudeste 9 Sudeste 0 -- -- 92
2021-03-05 02:00:00 4.7 3 Sudeste 9 Sudeste 0 -- -- 88
2021-03-05 01:00:00 5.3 6 Sudeste 11 Sudeste 0 -- -- 85
2021-03-05 00:00:00 5.1 5 Sudeste 10 Sudeste 0 -- -- 88
2021-03-04 23:00:00 5.9 4 Sudeste 13 Sudeste 0 -- -- 84
2021-03-04 22:00:00 6.6 4 Sudeste 8 Sudeste 0 -- -- 83
2021-03-04 21:00:00 8.5 4 Sudeste 9 Sudeste 0 -- -- 74
2021-03-04 20:00:00 9.9 5 Sudeste 9 Sudeste 0 -- -- 70
2021-03-04 19:00:00 11.6 2 Sur 10 Norte 0 -- -- 73
2021-03-04 18:00:00 12.8 7 Norte 17 Norte 0 -- -- 70
2021-03-04 17:00:00 15.5 8 Sudeste 28 Sudeste 0 -- -- 42
2021-03-04 16:00:00 18.5 4 Sudeste 14 Sudeste 0 -- -- 36
2021-03-04 15:00:00 18.8 4 Sur 16 Sur 0 -- -- 39
2021-03-04 14:00:00 18.2 6 Nordeste 15 Sudeste 0 -- -- 43
2021-03-04 13:00:00 17.8 6 Sudeste 15 Sudeste 0 -- -- 43
2021-03-04 12:00:00 16.8 7 Sudeste 15 Este 0 -- -- 46
2021-03-04 11:00:00 13.9 4 Noroeste 8 Noroeste 0 -- -- 60
2021-03-04 10:00:00 8.7 3 Noroeste 8 Sudeste 0 -- -- 85
2021-03-04 09:00:00 6.5 0 Calma 6 Sudeste 0 -- -- 91
2021-03-04 08:00:00 5.6 0 Calma 9 Sudeste 0 -- -- 90
2021-03-04 07:00:00 6 7 Sudeste 12 Sur 0 -- -- 83
2021-03-04 06:00:00 6 8 Sudeste 13 Sudeste 0 -- -- 83
2021-03-04 05:00:00 6 6 Sudeste 13 Sudeste 0 -- -- 84
2021-03-04 04:00:00 5.3 5 Sudeste 12 Sudeste 0 -- -- 89
2021-03-04 03:00:00 5.5 4 Sudeste 13 Sur 0 -- -- 88
2021-03-04 02:00:00 5.7 9 Sudeste 15 Sudeste 0 -- -- 86
2021-03-04 01:00:00 5.7 4 Noroeste 13 Sudeste 0 -- -- 87
2021-03-04 00:00:00 5.5 4 Sudeste 9 Sur 0 -- -- 88
2021-03-03 23:00:00 6.7 5 Sudeste 11 Sudeste 0 -- -- 82
2021-03-03 22:00:00 6.7 7 Sudeste 11 Sudeste 0 -- -- 83
2021-03-03 21:00:00 7.2 5 Sudeste 10 Sudeste 0 -- -- 82
2021-03-03 20:00:00 8.6 5 Sudeste 12 Sudeste 0 -- -- 76
2021-03-03 19:00:00 10.3 8 Sudeste 13 Sudeste 0 -- -- 68
2021-03-03 18:00:00 12.8 3 Sudeste 13 Sudeste 0 -- -- 58
2021-03-03 17:00:00 13.9 5 Sudeste 18 Sudeste 0 -- -- 52
2021-03-03 16:00:00 15.1 9 Sudeste 23 Sudeste 0 -- -- 49
2021-03-03 15:00:00 16.2 9 Sudeste 23 Este 0 -- -- 47
2021-03-03 14:00:00 15.8 7 Este 21 Este 0 -- -- 47
2021-03-03 13:00:00 15.5 6 Sudeste 27 Sudeste 0 -- -- 45
2021-03-03 12:00:00 14.6 7 Este 16 Este 0 -- -- 51
2021-03-03 11:00:00 11.8 3 Noroeste 11 Norte 0 -- -- 66
2021-03-03 10:00:00 6.5 3 Nordeste 9 Sudeste 0 -- -- 91
2021-03-03 09:00:00 5.1 3 Sudeste 9 Este 0 -- -- 96
2021-03-03 08:00:00 4.7 3 Sudeste 6 Este 0 -- -- 98
2021-03-03 07:00:00 4.6 3 Sudeste 9 Sudeste 0 -- -- 98
2021-03-03 06:00:00 5.3 4 Sudeste 8 Sudeste 0 -- -- 97
2021-03-03 05:00:00 5.2 2 Sur 9 Sudeste 0 -- -- 97
2021-03-03 04:00:00 5.1 3 Sudeste 10 Este 0 -- -- 95
2021-03-03 03:00:00 6.1 6 Sudeste 10 Sudeste 0 -- -- 97
2021-03-03 02:00:00 5.8 2 Este 5 Nordeste 0 -- -- 96
2021-03-03 01:00:00 7.2 3 Este 6 Nordeste 0 -- -- 93
2021-03-03 00:00:00 7.6 2 Sur 6 Sudeste 0.2 -- -- 95
2021-03-02 23:00:00 7.3 3 Sudeste 8 Sudeste 0 -- -- 96
2021-03-02 22:00:00 7.3 0 Calma 5 Nordeste 0 -- -- 94
2021-03-02 21:00:00 8 2 Sudeste 9 Sudeste 0 -- -- 92
2021-03-02 20:00:00 8.8 0 Calma 6 Sur 0 -- -- 89
2021-03-02 19:00:00 10 4 Sudeste 21 Norte 0 -- -- 83
2021-03-02 18:00:00 12.1 2 Este 13 Este 0 -- -- 65
2021-03-02 17:00:00 12.2 4 Sudeste 21 Noroeste 0 -- -- 67
2021-03-02 16:00:00 12.5 2 Noroeste 10 Noroeste 0 -- -- 65
2021-03-02 15:00:00 11.3 3 Noroeste 17 Noroeste 0 -- -- 72
2021-03-02 14:00:00 11.8 5 Noroeste 20 Este 0 -- -- 64
2021-03-02 13:00:00 12.3 8 Nordeste 18 Este 0 -- -- 63
2021-03-02 12:00:00 9.6 2 Nordeste 9 Sur 0.2 -- -- 84
2021-03-02 11:00:00 8.5 2 Nordeste 9 Sudeste 0 -- -- 93
2021-03-02 10:00:00 7.6 2 Este 9 Sudeste 0 -- -- 95
2021-03-02 09:00:00 7 3 Sudeste 7 Sur 0 -- -- 96
2021-03-02 08:00:00 7.2 0 Calma 6 Sudeste 0.6 -- -- 95
2021-03-02 07:00:00 7.7 3 Sudeste 24 Sudeste 0.4 -- -- 92
2021-03-02 06:00:00 7.7 3 Norte 16 Sudeste 0 -- -- 86
2021-03-02 05:00:00 7.7 2 Este 16 Sur 0 -- -- 86
2021-03-02 04:00:00 7.9 2 Norte 15 Sudeste 0 -- -- 85
2021-03-02 03:00:00 9.6 7 Este 31 Sudeste 0 -- -- 73
2021-03-02 02:00:00 10 5 Nordeste 31 Nordeste 0 -- -- 73
2021-03-02 01:00:00 8.7 5 Noroeste 32 Sur 0.2 -- -- 85
2021-03-02 00:00:00 9.7 6 Sudeste 42 Sudeste 0 -- -- 75
2021-03-01 23:00:00 9.5 10 Sudeste 30 Este 0.6 -- -- 75
2021-03-01 22:00:00 8.6 10 Sudeste 28 Sur 0.6 -- -- 82
2021-03-01 21:00:00 6.8 4 Norte 13 Sudeste 3.2 -- -- 94
2021-03-01 20:00:00 7.9 6 Este 22 Sudeste 3.4 -- -- 88
2021-03-01 19:00:00 7.4 2 Norte 17 Sur 1.2 -- -- 89
2021-03-01 18:00:00 8.1 4 Sudeste 12 Norte 2.2 -- -- 94
2021-03-01 17:00:00 9.3 4 Este 20 Sur 0.4 -- -- 86
2021-03-01 16:00:00 9 5 Este 21 Sur 0.8 -- -- 82
2021-03-01 15:00:00 9.6 7 Sudeste 44 Sudeste 0.2 -- -- 70
2021-03-01 14:00:00 9.7 13 Sudeste 40 Sur 0.2 -- -- 70
2021-03-01 13:00:00 9.1 14 Sudeste 34 Sur 0.2 -- -- 71
2021-03-01 12:00:00 8.5 11 Sudeste 37 Sur 0.4 -- -- 74
2021-03-01 11:00:00 7.9 8 Sudeste 34 Este 0.8 -- -- 79
2021-03-01 10:00:00 6.7 7 Sudeste 27 Sur 1.6 -- -- 84
2021-03-01 09:00:00 5.7 3 Nordeste 21 Sudeste 2.6 -- -- 92
2021-03-01 08:00:00 5.5 0 Calma 15 Nordeste 3.8 -- -- 93
2021-03-01 07:00:00 6.2 2 Nordeste 17 Sur 3.2 -- -- 91
2021-03-01 06:00:00 8.4 6 Sudeste 37 Sudeste 0.4 -- -- 79
2021-03-01 05:00:00 9 15 Sudeste 41 Sudeste 0 -- -- 69
2021-03-01 04:00:00 8.6 9 Sur 31 Sudeste 0 -- -- 64
2021-03-01 03:00:00 7.5 9 Sudeste 26 Sudeste 0 -- -- 68
2021-03-01 02:00:00 5 4 Noroeste 19 Sudeste 0 -- -- 91
2021-03-01 01:00:00 4.7 6 Este 12 Este 0.4 -- -- 97
2021-03-01 00:00:00 2.9 2 Noroeste 7 Oeste 0 -- -- 96
2021-02-28 23:00:00 2.6 2 Sudoeste 6 Este 0 -- -- 94
2021-02-28 22:00:00 3.1 3 Sudeste 8 Sudeste 0 -- -- 92
2021-02-28 21:00:00 3.9 5 Sudeste 8 Sudeste 0 -- -- 89
2021-02-28 20:00:00 4.9 5 Sudeste 7 Sudeste 0 -- -- 86
2021-02-28 19:00:00 7.1 0 Calma 12 Norte 0 -- -- 77
2021-02-28 18:00:00 8.5 6 Norte 12 Nordeste 0 -- -- 71
2021-02-28 17:00:00 8.7 7 Noroeste 15 Noroeste 0 -- -- 70
2021-02-28 16:00:00 9.8 10 Noroeste 20 Noroeste 0 -- -- 63
2021-02-28 15:00:00 10.9 12 Noroeste 20 Noroeste 0 -- -- 63
2021-02-28 14:00:00 9.9 13 Noroeste 19 Noroeste 0 -- -- 67
2021-02-28 13:00:00 8.6 9 Noroeste 17 Noroeste 0 -- -- 72
2021-02-28 12:00:00 7.8 7 Noroeste 12 Noroeste 0 -- -- 71
2021-02-28 11:00:00 5.3 2 Este 9 Sudeste 0 -- -- 79
2021-02-28 10:00:00 3.9 3 Sur 10 Sur 0 -- -- 83
2021-02-28 09:00:00 3.2 5 Sudeste 12 Sudeste 0 -- -- 88
2021-02-28 08:00:00 2.9 4 Sudeste 12 Sudeste 0 -- -- 89
2021-02-28 07:00:00 3.9 2 Nordeste 8 Sudeste 0 -- -- 86
2021-02-28 06:00:00 3.8 4 Sudeste 10 Sudeste 0 -- -- 88
2021-02-28 05:00:00 3.8 8 Sudeste 12 Sudeste 0 -- -- 85
2021-02-28 04:00:00 4.6 4 Sudeste 10 Sur 0 -- -- 84
2021-02-28 03:00:00 5.1 4 Sudeste 11 Sudeste 0 -- -- 82
2021-02-28 02:00:00 5.7 2 Sudeste 10 Sudeste 0 -- -- 87
2021-02-28 01:00:00 6.1 3 Noroeste 7 Noroeste 0 -- -- 97
2021-02-28 00:00:00 6.4 0 Calma 6 Noroeste 0 -- -- 96
2021-02-27 23:00:00 6.7 5 Noroeste 8 Noroeste 0 -- -- 96
2021-02-27 22:00:00 6.9 5 Norte 8 Noroeste 0 -- -- 95
2021-02-27 21:00:00 7.1 5 Norte 10 Norte 0 -- -- 93
2021-02-27 20:00:00 7.6 6 Norte 13 Norte 0 -- -- 91
2021-02-27 19:00:00 8 8 Norte 14 Norte 0 -- -- 88
2021-02-27 18:00:00 8.6 9 Norte 17 Noroeste 0 -- -- 83
2021-02-27 17:00:00 9.6 10 Noroeste 18 Noroeste 0 -- -- 77
2021-02-27 16:00:00 10.7 10 Noroeste 15 Noroeste 0 -- -- 73
2021-02-27 15:00:00 11.6 11 Noroeste 17 Noroeste 0 -- -- 70
2021-02-27 14:00:00 10.9 6 Noroeste 11 Noroeste 0 -- -- 72
2021-02-27 13:00:00 9 5 Noroeste 11 Noroeste 0 -- -- 78
2021-02-27 12:00:00 8.3 3 Noroeste 10 Sudeste 0 -- -- 80
2021-02-27 11:00:00 7.2 5 Sudeste 9 Sudeste 0 -- -- 82
2021-02-27 10:00:00 6.5 4 Sudeste 12 Sudeste 0 -- -- 85
2021-02-27 09:00:00 6.3 5 Sur 10 Sur 0 -- -- 86
2021-02-27 08:00:00 6.2 3 Sudeste 9 Sudeste 0 -- -- 88
2021-02-27 07:00:00 6.4 2 Sudeste 6 Sudeste 0 -- -- 89
2021-02-27 06:00:00 6.4 3 Este 10 Sudeste 0 -- -- 90
2021-02-27 05:00:00 6.6 3 Sudeste 7 Sudeste 0 -- -- 94
2021-02-27 04:00:00 7 0 Calma 3 Noroeste 0 -- -- 99
2021-02-27 03:00:00 7.2 0 Calma 2 Noroeste 0 -- -- 99
2021-02-27 02:00:00 7.3 0 Calma 3 Noroeste 0 -- -- 99
2021-02-27 01:00:00 7.4 0 Calma 4 Noroeste 0 -- -- 98
2021-02-27 00:00:00 7.5 0 Calma 4 Noroeste 0 -- -- 98
2021-02-26 23:00:00 7.6 2 Norte 6 Norte 0 -- -- 98
2021-02-26 22:00:00 7.8 4 Norte 7 Norte 0 -- -- 97
2021-02-26 21:00:00 8.1 4 Norte 10 Norte 0 -- -- 94
2021-02-26 20:00:00 8.5 5 Norte 10 Noroeste 0 -- -- 91
2021-02-26 19:00:00 9.1 5 Norte 11 Norte 0 -- -- 88
2021-02-26 18:00:00 9.6 6 Norte 18 Norte 0 -- -- 85
2021-02-26 17:00:00 10.6 10 Noroeste 18 Noroeste 0 -- -- 80
2021-02-26 16:00:00 11.4 13 Noroeste 17 Noroeste 0 -- -- 76
2021-02-26 15:00:00 12.3 10 Noroeste 15 Noroeste 0 -- -- 72
2021-02-26 14:00:00 12.5 9 Noroeste 14 Noroeste 0 -- -- 70
2021-02-26 13:00:00 10.4 5 Noroeste 8 Noroeste 0 -- -- 74
2021-02-26 12:00:00 9.3 3 Noroeste 5 Noroeste 0 -- -- 77
2021-02-26 11:00:00 8.7 3 Sudeste 10 Sudeste 0 -- -- 77
2021-02-26 10:00:00 7.4 5 Sudeste 10 Sudeste 0 -- -- 87
2021-02-26 09:00:00 6.2 0 Calma 6 Sudeste 0 -- -- 99
2021-02-26 08:00:00 6 2 Este 3 Sur 0 -- -- 99
2021-02-26 07:00:00 6 0 Calma 5 Sudeste 0 -- -- 98
2021-02-26 06:00:00 6 2 Sur 4 Sudeste 0 -- -- 99
2021-02-26 05:00:00 6 0 Calma 4 Sudeste 0 -- -- 99
2021-02-26 04:00:00 6 0 Calma 8 Sudeste 0 -- -- 98
2021-02-26 03:00:00 6 4 Sudeste 6 Sudeste 0 -- -- 99
2021-02-26 02:00:00 6.1 0 Calma 6 Sudeste 0 -- -- 97
2021-02-26 01:00:00 6.4 3 Sudeste 6 Sudeste 0 -- -- 99
2021-02-26 00:00:00 6.5 2 Sudeste 5 Noroeste 0 -- -- 100
2021-02-25 23:00:00 6.6 0 Calma 4 Noroeste 0.2 -- -- 100
2021-02-25 22:00:00 6.7 0 Calma 2 Norte 0 -- -- 99
2021-02-25 21:00:00 6.7 3 Noroeste 5 Noroeste 0.2 -- -- 99
2021-02-25 20:00:00 6.7 2 Norte 7 Noroeste 0 -- -- 99
2021-02-25 19:00:00 7 3 Norte 6 Norte 0 -- -- 97
2021-02-25 18:00:00 7.1 3 Norte 8 Norte 0 -- -- 96
2021-02-25 17:00:00 7.1 3 Noroeste 6 Noroeste 0 -- -- 96
2021-02-25 16:00:00 6.9 0 Calma 6 Norte 0 -- -- 97
2021-02-25 15:00:00 6.9 4 Noroeste 8 Noroeste 0.4 -- -- 97
2021-02-25 14:00:00 7 4 Noroeste 9 Noroeste 0 -- -- 94
2021-02-25 13:00:00 7.1 4 Norte 9 Noroeste 0 -- -- 94
2021-02-25 12:00:00 7 4 Norte 11 Norte 0 -- -- 94
2021-02-25 11:00:00 6.7 5 Norte 11 Norte 0 -- -- 95
2021-02-25 10:00:00 7 5 Norte 11 Noroeste 0 -- -- 97
2021-02-25 09:00:00 7.2 5 Norte 11 Norte 0 -- -- 96
2021-02-25 08:00:00 7.3 5 Norte 13 Norte 0 -- -- 97
2021-02-25 07:00:00 7.5 4 Norte 10 Noroeste 0 -- -- 95
2021-02-25 06:00:00 7.7 5 Norte 18 Nordeste 0 -- -- 93
2021-02-25 05:00:00 8.7 8 Norte 16 Noroeste 0 -- -- 86
2021-02-25 04:00:00 11.3 5 Sudeste 22 Sudeste 0 -- -- 68
2021-02-25 03:00:00 11.2 4 Sudeste 18 Noroeste 0 -- -- 68
2021-02-25 02:00:00 11.3 3 Sudeste 17 Nordeste 0 -- -- 64
2021-02-25 01:00:00 10.5 4 Sudeste 9 Sur 0 -- -- 69
2021-02-25 00:00:00 12.3 4 Este 27 Noroeste 0 -- -- 56
2021-02-24 23:00:00 11.3 3 Sudeste 15 Este 0 -- -- 61
2021-02-24 22:00:00 11.4 4 Sudeste 24 Sudeste 0 -- -- 60
2021-02-24 21:00:00 12.8 3 Sudeste 20 Sudeste 0 -- -- 57
2021-02-24 20:00:00 13 6 Sudeste 25 Sur 0 -- -- 53
2021-02-24 19:00:00 13.5 6 Este 29 Nordeste 0 -- -- 52
2021-02-24 18:00:00 14.2 13 Sudeste 36 Sudeste 0 -- -- 49
2021-02-24 17:00:00 14.6 7 Sudeste 28 Sudeste 0 -- -- 42
2021-02-24 16:00:00 15.3 11 Noroeste 30 Noroeste 0 -- -- 38
2021-02-24 15:00:00 16.9 12 Noroeste 30 Este 0 -- -- 37
2021-02-24 14:00:00 15.5 7 Norte 30 Este 0 -- -- 40
2021-02-24 13:00:00 15 15 Sudeste 40 Sur 0 -- -- 41
2021-02-24 12:00:00 15 11 Este 41 Sur 0 -- -- 39
2021-02-24 11:00:00 13.9 6 Nordeste 24 Nordeste 0 -- -- 38
2021-02-24 10:00:00 10.7 6 Nordeste 42 Norte 0 -- -- 45
2021-02-24 09:00:00 10.2 9 Este 27 Sudeste 0 -- -- 48
2021-02-24 08:00:00 9.6 9 Este 22 Este 0 -- -- 51
2021-02-24 07:00:00 8.6 5 Oeste 28 Este 0 -- -- 55
2021-02-24 06:00:00 10.4 10 Este 41 Nordeste 0 -- -- 46
2021-02-24 05:00:00 10.7 11 Este 29 Este 0 -- -- 43
2021-02-24 04:00:00 9.6 7 Este 22 Sudeste 0 -- -- 48
2021-02-24 03:00:00 9.9 7 Sudeste 30 Sudeste 0 -- -- 50
2021-02-24 02:00:00 10 9 Sudeste 39 Sur 0 -- -- 51
2021-02-24 01:00:00 9.1 8 Este 24 Sur 0 -- -- 53
2021-02-24 00:00:00 8 3 Este 24 Nordeste 0 -- -- 58
2021-02-23 23:00:00 6.2 6 Sudeste 16 Sudeste 0 -- -- 67
2021-02-23 22:00:00 7.4 5 Este 22 Sur 0 -- -- 62
2021-02-23 21:00:00 8.3 6 Sudeste 17 Sudeste 0 -- -- 55
2021-02-23 20:00:00 8.9 4 Este 21 Este 0 -- -- 48
2021-02-23 19:00:00 10.4 7 Sudeste 17 Sur 0 -- -- 45
2021-02-23 18:00:00 11.4 4 Este 28 Nordeste 0 -- -- 46
2021-02-23 17:00:00 12.2 7 Sudeste 32 Sur 0 -- -- 41
2021-02-23 16:00:00 12.7 7 Sudeste 27 Sur 0 -- -- 41
2021-02-23 15:00:00 14.5 7 Sudoeste 37 Sudeste 0 -- -- 36
2021-02-23 14:00:00 13.5 13 Sur 40 Sudeste 0 -- -- 40
2021-02-23 13:00:00 13.1 12 Sudeste 36 Sur 0 -- -- 42
2021-02-23 12:00:00 12.5 9 Sur 38 Sudeste 0 -- -- 42
2021-02-23 11:00:00 11.4 13 Sudeste 32 Sur 0 -- -- 44
2021-02-23 10:00:00 8.5 5 Sudeste 21 Sudeste 0 -- -- 49
2021-02-23 09:00:00 7.6 4 Sudeste 22 Sur 0 -- -- 50
2021-02-23 08:00:00 6.9 6 Sudeste 22 Sur 0 -- -- 52
2021-02-23 07:00:00 3.4 3 Sudeste 11 Sudeste 0 -- -- 73
2021-02-23 06:00:00 4.7 5 Sudeste 16 Sudeste 0 -- -- 64
2021-02-23 05:00:00 2.5 3 Este 11 Este 0 -- -- 77
2021-02-23 04:00:00 3.4 4 Este 9 Nordeste 0 -- -- 73
2021-02-23 03:00:00 4.3 3 Sudeste 22 Sur 0 -- -- 72
2021-02-23 02:00:00 4.2 5 Este 15 Sur 0 -- -- 65
2021-02-23 01:00:00 3.6 4 Norte 19 Sur 0 -- -- 72
2021-02-23 00:00:00 2.5 0 Calma 9 Sudeste 0 -- -- 81
2021-02-22 23:00:00 2.6 4 Sudeste 13 Sudeste 0 -- -- 82
2021-02-22 22:00:00 2.5 3 Sudeste 11 Sudeste 0 -- -- 84
2021-02-22 21:00:00 3.3 9 Sudeste 15 Sudeste 0 -- -- 76
2021-02-22 20:00:00 3.5 9 Sudeste 19 Sudeste 0 -- -- 72
2021-02-22 19:00:00 4.4 9 Sudeste 19 Sudeste 0 -- -- 68
2021-02-22 18:00:00 5.1 9 Sudeste 16 Sudeste 0 -- -- 66
2021-02-22 17:00:00 5.3 7 Sudeste 14 Sudeste 0 -- -- 66
2021-02-22 16:00:00 6.6 6 Sudeste 11 Sudeste 0 -- -- 64
2021-02-22 15:00:00 9.7 5 Sur 11 Sur 0 -- -- 54
2021-02-22 14:00:00 9.5 4 Sur 10 Sudeste 0 -- -- 56
2021-02-22 13:00:00 8.7 6 Sur 10 Sur 0 -- -- 61
2021-02-22 12:00:00 8.2 3 Este 10 Sur 0 -- -- 64
2021-02-22 11:00:00 5.8 4 Este 10 Este 0 -- -- 78
2021-02-22 10:00:00 2.6 4 Sudeste 8 Sudeste 0 -- -- 98
2021-02-22 09:00:00 1.3 3 Sudeste 6 Sur 0 -- -- 100
2021-02-22 08:00:00 1.3 3 Sudeste 6 Sudeste 0 -- -- 100
2021-02-22 07:00:00 1.3 4 Sudeste 6 Sudeste 0 -- -- 100
2021-02-22 06:00:00 1.1 3 Sudeste 6 Sudeste 0.2 -- -- 100
2021-02-22 05:00:00 1 2 Sudeste 5 Sur 0 -- -- 100
2021-02-22 04:00:00 0.9 0 Calma 7 Sudeste 0.8 -- -- 100
2021-02-22 03:00:00 0.8 4 Sudeste 7 Sudeste 1.8 -- -- 100
2021-02-22 02:00:00 0.7 3 Sudeste 7 Este 1.8 -- -- 100
2021-02-22 01:00:00 0.6 3 Sudeste 5 Sudeste 0.6 -- -- 100
2021-02-22 00:00:00 0.5 0 Calma 2 Este 0.6 -- -- 100
2021-02-21 23:00:00 0.4 0 Calma 6 Sudeste 1 -- -- 100
2021-02-21 22:00:00 0.3 0 Calma 2 Este 2 -- -- 99
2021-02-21 21:00:00 0.2 0 Calma 0 Calma 2.4 -- -- 99
2021-02-21 20:00:00 0.3 0 Calma 2 Este 2 -- -- 98
2021-02-21 19:00:00 0.4 0 Calma 0 Calma 2.8 -- -- 98
2021-02-21 18:00:00 0.7 0 Calma 3 Sudeste 3.8 -- -- 96
2021-02-21 17:00:00 1.5 0 Calma 20 Norte 4.4 -- -- 93
2021-02-21 16:00:00 4.1 9 Norte 18 Norte 3.4 -- -- 94
2021-02-21 15:00:00 5.6 10 Norte 15 Noroeste 2.2 -- -- 96
2021-02-21 14:00:00 6.8 7 Norte 18 Norte 2.4 -- -- 96
2021-02-21 13:00:00 7.6 11 Norte 21 Norte 2.4 -- -- 95
2021-02-21 12:00:00 7.8 0 Calma 13 Sur 1.8 -- -- 94
2021-02-21 11:00:00 8.9 4 Sudeste 24 Sur 1.2 -- -- 80
2021-02-21 10:00:00 8.9 9 Sudeste 47 Sur 1.8 -- -- 74
2021-02-21 09:00:00 10.3 11 Sudeste 58 Sur 0.8 -- -- 60
2021-02-21 08:00:00 12 15 Sudeste 48 Sudeste 0 -- -- 48
2021-02-21 07:00:00 12 12 Sur 32 Sudeste 0 -- -- 47
2021-02-21 06:00:00 12.6 5 Sudeste 27 Sudeste 0 -- -- 41
2021-02-21 05:00:00 12.2 7 Este 32 Noroeste 0 -- -- 40
2021-02-21 04:00:00 12.3 7 Este 32 Sur 0.2 -- -- 36
2021-02-21 03:00:00 12.3 12 Este 36 Sudeste 0 -- -- 38
2021-02-21 02:00:00 11.5 7 Este 38 Nordeste 0 -- -- 50
2021-02-21 01:00:00 11.8 8 Sur 35 Sudeste 0 -- -- 46
2021-02-21 00:00:00 10.5 4 Norte 41 Sudeste 0 -- -- 65
2021-02-20 23:00:00 11.2 6 Sudeste 44 Nordeste 0 -- -- 58
2021-02-20 22:00:00 10.5 15 Sudeste 44 Sur 0.2 -- -- 61
2021-02-20 21:00:00 9.2 11 Sudeste 46 Este 2.2 -- -- 72
2021-02-20 20:00:00 9.7 17 Sudeste 55 Este 2.6 -- -- 71
2021-02-20 19:00:00 9.6 18 Este 57 Sudeste 3.4 -- -- 71
2021-02-20 18:00:00 9.1 12 Sudeste 53 Este 2.2 -- -- 73
2021-02-20 17:00:00 10.6 11 Este 46 Este 1 -- -- 70
2021-02-20 16:00:00 11.2 12 Este 44 Sur 0.4 -- -- 64
2021-02-20 15:00:00 11.8 13 Sudeste 54 Sudeste 0 -- -- 62
2021-02-20 14:00:00 12.4 17 Sudeste 54 Sudeste 0 -- -- 54
2021-02-20 13:00:00 13.7 24 Sudeste 62 Sur 0 -- -- 47
2021-02-20 12:00:00 14.4 20 Este 73 Este 0 -- -- 39
2021-02-20 11:00:00 13.2 23 Este 61 Este 0 -- -- 38
2021-02-20 10:00:00 12.4 18 Sudeste 63 Sudeste 0 -- -- 42
2021-02-20 09:00:00 11.8 13 Este 60 Sudeste 0 -- -- 48
2021-02-20 08:00:00 11.8 18 Sudeste 44 Noroeste 0 -- -- 45
2021-02-20 07:00:00 12.2 18 Este 64 Sudeste 0 -- -- 42
2021-02-20 06:00:00 11.9 22 Este 52 Este 0 -- -- 48
2021-02-20 05:00:00 11.6 15 Este 51 Sudeste 0 -- -- 52
2021-02-20 04:00:00 12 18 Este 57 Sur 0 -- -- 54
2021-02-20 03:00:00 11.8 18 Este 46 Sudeste 0 -- -- 59
2021-02-20 02:00:00 11.8 9 Este 41 Este 0 -- -- 62
2021-02-20 01:00:00 12.1 11 Sudeste 53 Sur 0 -- -- 58
2021-02-20 00:00:00 11.8 8 Este 40 Sudeste 0 -- -- 60
2021-02-19 23:00:00 11.8 9 Este 48 Sudeste 0 -- -- 60
2021-02-19 22:00:00 11.5 7 Este 31 Este 0 -- -- 60
2021-02-19 21:00:00 11.5 12 Este 37 Este 0 -- -- 57
2021-02-19 20:00:00 11.8 14 Sudeste 51 Sudeste 0 -- -- 55
2021-02-19 19:00:00 11.9 11 Sudeste 48 Sudeste 0 -- -- 54
2021-02-19 18:00:00 12.4 14 Sudeste 44 Este 0 -- -- 53
2021-02-19 17:00:00 13.2 7 Este 33 Sudeste 0 -- -- 50
2021-02-19 16:00:00 13 7 Nordeste 32 Sudeste 0 -- -- 49
2021-02-19 15:00:00 13.7 13 Sudeste 62 Sudeste 0 -- -- 51
2021-02-19 14:00:00 12.5 14 Sudeste 46 Sudeste 0 -- -- 59
2021-02-19 13:00:00 12.3 11 Este 57 Sudeste 0 -- -- 59
2021-02-19 12:00:00 12.4 13 Este 48 Sudeste 0 -- -- 57
2021-02-19 11:00:00 11.8 16 Sudeste 68 Sur 0 -- -- 57
2021-02-19 10:00:00 11.5 18 Este 43 Este 0 -- -- 61
2021-02-19 09:00:00 10.9 13 Este 47 Sudeste 0 -- -- 60
2021-02-19 08:00:00 10.4 10 Sudeste 32 Sudeste 0 -- -- 62
2021-02-19 07:00:00 10.4 12 Este 37 Sudeste 0 -- -- 62
2021-02-19 06:00:00 10.3 11 Sudeste 50 Sur 0 -- -- 62
2021-02-19 05:00:00 10.2 10 Sudeste 35 Sur 0 -- -- 59
2021-02-19 04:00:00 9.4 7 Este 21 Nordeste 0 -- -- 60
2021-02-19 03:00:00 8.9 6 Este 22 Este 0 -- -- 65
2021-02-19 02:00:00 8.7 3 Norte 19 Este 0 -- -- 66
2021-02-19 01:00:00 9.7 11 Nordeste 36 Nordeste 0 -- -- 59
2021-02-19 00:00:00 8.3 9 Este 32 Este 0 -- -- 63
2021-02-18 23:00:00 8.9 4 Sudeste 23 Este 0 -- -- 65
2021-02-18 22:00:00 7.5 5 Noroeste 17 Noroeste 0 -- -- 75
2021-02-18 21:00:00 7.5 3 Sudeste 12 Sudeste 0 -- -- 76
2021-02-18 20:00:00 7.6 4 Sur 17 Noroeste 0 -- -- 80
2021-02-18 19:00:00 8.9 6 Norte 13 Noroeste 0 -- -- 82
2021-02-18 18:00:00 10.9 5 Noroeste 18 Norte 0 -- -- 69
2021-02-18 17:00:00 11.6 5 Noroeste 15 Noroeste 0 -- -- 67
2021-02-18 16:00:00 11.4 7 Noroeste 26 Noroeste 0 -- -- 75
2021-02-18 15:00:00 13 3 Norte 18 Noroeste 0 -- -- 57
2021-02-18 14:00:00 12.1 4 Noroeste 27 Noroeste 0 -- -- 73
2021-02-18 13:00:00 12.5 3 Sudeste 15 Sudeste 0 -- -- 62
2021-02-18 12:00:00 12.1 3 Sudeste 14 Sudeste 0.2 -- -- 61
2021-02-18 11:00:00 11 2 Sudeste 9 Sudeste 0 -- -- 74
2021-02-18 10:00:00 8.8 2 Norte 16 Sudeste 0.6 -- -- 91
2021-02-18 09:00:00 10.6 6 Nordeste 32 Este 0 -- -- 70
2021-02-18 08:00:00 11 10 Este 31 Este 0 -- -- 66
2021-02-18 07:00:00 11.2 6 Este 48 Este 0 -- -- 62
2021-02-18 06:00:00 12 18 Este 47 Sudeste 0 -- -- 55
2021-02-18 05:00:00 12 18 Este 44 Este 0 -- -- 59
2021-02-18 04:00:00 12.6 22 Este 64 Este 0.2 -- -- 55
2021-02-18 03:00:00 12.7 19 Este 58 Sudeste 0 -- -- 58
2021-02-18 02:00:00 12.6 6 Nordeste 44 Este 0 -- -- 61
2021-02-18 01:00:00 12.6 10 Nordeste 38 Este 0 -- -- 62
2021-02-18 00:00:00 12.6 9 Nordeste 49 Nordeste 0 -- -- 62
2021-02-17 23:00:00 9.7 3 Noroeste 14 Sur 0.2 -- -- 87
2021-02-17 22:00:00 10.4 3 Este 28 Este 0.4 -- -- 86
2021-02-17 21:00:00 12.1 5 Este 27 Este 0 -- -- 62
2021-02-17 20:00:00 12.2 12 Este 33 Este 0 -- -- 66
2021-02-17 19:00:00 12.3 8 Sudeste 39 Sudeste 0 -- -- 62
2021-02-17 18:00:00 13.1 5 Sudeste 19 Sur 0 -- -- 55
2021-02-17 17:00:00 13.4 4 Norte 13 Este 0 -- -- 52
2021-02-17 16:00:00 13.8 3 Nordeste 25 Sudeste 0 -- -- 46
2021-02-17 15:00:00 14.2 8 Sudeste 28 Sudeste 0 -- -- 47
2021-02-17 14:00:00 14.6 13 Sudeste 42 Sudeste 0 -- -- 44
2021-02-17 13:00:00 12.9 16 Sudeste 42 Sudeste 0 -- -- 50
2021-02-17 12:00:00 11 15 Sudeste 31 Sudeste 0 -- -- 54
2021-02-17 11:00:00 10.4 10 Sudeste 28 Sudeste 0 -- -- 58
2021-02-17 10:00:00 7.5 2 Noroeste 21 Este 0 -- -- 69
2021-02-17 09:00:00 7.4 6 Sudeste 31 Sudeste 0 -- -- 66
2021-02-17 08:00:00 4.1 5 Sudeste 19 Sur 0 -- -- 76
2021-02-17 07:00:00 3.5 0 Calma 10 Sudeste 0 -- -- 82
2021-02-17 06:00:00 3.7 3 Sudeste 14 Sudeste 0 -- -- 82
2021-02-17 05:00:00 4.4 8 Sudeste 13 Sudeste 0 -- -- 75
2021-02-17 04:00:00 4.7 5 Sudeste 13 Este 0 -- -- 74
2021-02-17 03:00:00 5 4 Sudeste 13 Sudeste 0 -- -- 76
2021-02-17 02:00:00 4.7 5 Sudeste 12 Sudeste 0 -- -- 76
2021-02-17 01:00:00 6.1 3 Este 12 Sudeste 0 -- -- 68
2021-02-17 00:00:00 5.9 5 Sudeste 11 Sudeste 0 -- -- 70
2021-02-16 23:00:00 4.7 3 Sudeste 13 Sudeste 0 -- -- 79
2021-02-16 22:00:00 5.4 4 Sudeste 11 Sudeste 0 -- -- 76
2021-02-16 21:00:00 6.2 6 Sudeste 13 Sudeste 0 -- -- 70
2021-02-16 20:00:00 8.4 6 Sudeste 23 Sudeste 0 -- -- 66
2021-02-16 19:00:00 10.8 9 Sudeste 21 Este 0 -- -- 55
2021-02-16 18:00:00 11.6 7 Este 20 Sudeste 0 -- -- 59
2021-02-16 17:00:00 12.2 4 Sudeste 10 Sudeste 0.2 -- -- 59
2021-02-16 16:00:00 11.2 5 Sudeste 12 Sur 0 -- -- 76
2021-02-16 15:00:00 10.2 6 Norte 27 Noroeste 0 -- -- 83
2021-02-16 14:00:00 12.9 3 Sudoeste 22 Sur 0 -- -- 57
2021-02-16 13:00:00 13.1 6 Sudeste 17 Sudeste 0 -- -- 55
2021-02-16 12:00:00 13.7 7 Sudeste 23 Sudeste 0 -- -- 53
2021-02-16 11:00:00 13 6 Nordeste 28 Este 0 -- -- 51
2021-02-16 10:00:00 10.9 4 Noroeste 22 Sudeste 0 -- -- 58
2021-02-16 09:00:00 9.8 4 Sudeste 23 Este 0 -- -- 62
2021-02-16 08:00:00 11.6 9 Este 22 Sudeste 0 -- -- 51
2021-02-16 07:00:00 12 4 Este 32 Nordeste 0 -- -- 52
2021-02-16 06:00:00 12.6 9 Este 27 Sur 0 -- -- 52
2021-02-16 05:00:00 12.5 9 Sudeste 25 Sur 0 -- -- 51
2021-02-16 04:00:00 13.1 14 Este 45 Sudeste 0 -- -- 49
2021-02-16 03:00:00 13 9 Sudeste 46 Sudeste 0 -- -- 51
2021-02-16 02:00:00 13.3 10 Este 41 Sudeste 0 -- -- 49
2021-02-16 01:00:00 13.5 10 Sudeste 37 Este 0 -- -- 51
2021-02-16 00:00:00 14.1 14 Sudeste 47 Sur 0 -- -- 49
2021-02-15 23:00:00 14.3 19 Sudeste 57 Sudeste 0 -- -- 49
2021-02-15 22:00:00 14.3 14 Este 52 Sudeste 0 -- -- 48
2021-02-15 21:00:00 14.5 11 Sudeste 39 Nordeste 0 -- -- 46
2021-02-15 20:00:00 14.8 15 Este 37 Sudeste 0 -- -- 41
2021-02-15 19:00:00 13.8 3 Norte 21 Sur 0 -- -- 46
2021-02-15 18:00:00 15.6 6 Sudeste 23 Sudeste 0 -- -- 38
2021-02-15 17:00:00 16.7 10 Sudeste 34 Sur 0 -- -- 33
2021-02-15 16:00:00 17.4 5 Sur 33 Sur 0 -- -- 33
2021-02-15 15:00:00 17.2 12 Sudeste 47 Sur 0 -- -- 33
2021-02-15 14:00:00 16.1 7 Este 46 Este 0 -- -- 41
2021-02-15 13:00:00 15.5 12 Este 37 Este 0 -- -- 43
2021-02-15 12:00:00 14 14 Este 41 Sudeste 0 -- -- 46
2021-02-15 11:00:00 12.6 17 Sudeste 45 Sur 0 -- -- 49
2021-02-15 10:00:00 12.5 18 Este 45 Sudeste 0 -- -- 46
2021-02-15 09:00:00 12.2 12 Sudeste 47 Este 0 -- -- 45
2021-02-15 08:00:00 11.8 14 Sudeste 39 Sudeste 0 -- -- 49
2021-02-15 07:00:00 12.3 18 Sudeste 45 Sur 0 -- -- 47
2021-02-15 06:00:00 13.4 16 Sudeste 37 Sudeste 0 -- -- 39
2021-02-15 05:00:00 13.4 13 Sudeste 35 Sudeste 0 -- -- 40
2021-02-15 04:00:00 13.3 13 Sudeste 37 Sudeste 0 -- -- 43
2021-02-15 03:00:00 14.1 17 Sudeste 34 Sudeste 0 -- -- 41
2021-02-15 02:00:00 13.9 15 Este 40 Sudeste 0 -- -- 45
2021-02-15 01:00:00 13.3 13 Sudeste 35 Nordeste 0 -- -- 54
2021-02-15 00:00:00 13.4 14 Sudeste 50 Sudeste 0 -- -- 55
2021-02-14 23:00:00 13.4 15 Sudeste 42 Este 0 -- -- 57
2021-02-14 22:00:00 12.4 10 Este 23 Este 0 -- -- 60
2021-02-14 21:00:00 12.3 6 Este 26 Sudeste 0 -- -- 59
2021-02-14 20:00:00 12.4 12 Sudeste 36 Sudeste 0 -- -- 58
2021-02-14 19:00:00 12.2 15 Sudeste 41 Sur 0 -- -- 60
2021-02-14 18:00:00 12.7 13 Sudeste 40 Sudeste 0 -- -- 61
2021-02-14 17:00:00 13.3 18 Sudeste 46 Sudeste 0 -- -- 59
2021-02-14 16:00:00 14.1 19 Este 41 Sudeste 0 -- -- 56
2021-02-14 15:00:00 15 10 Sudeste 32 Sur 0 -- -- 54
2021-02-14 14:00:00 15.3 12 Sudeste 30 Sur 0 -- -- 50
2021-02-14 13:00:00 16 9 Sudeste 24 Sudeste 0 -- -- 48
2021-02-14 12:00:00 15.4 15 Sudeste 26 Sudeste 0 -- -- 50
2021-02-14 11:00:00 14 10 Sudeste 33 Sur 0 -- -- 55
2021-02-14 10:00:00 11.4 9 Este 22 Sudeste 0 -- -- 65
2021-02-14 09:00:00 6.6 2 Noroeste 9 Sur 0 -- -- 83
2021-02-14 08:00:00 8.5 5 Este 19 Sur 0 -- -- 75
2021-02-14 07:00:00 9.7 3 Norte 24 Sudeste 0 -- -- 70
2021-02-14 06:00:00 7.7 8 Sur 23 Sudeste 0 -- -- 78
2021-02-14 05:00:00 4.2 3 Este 12 Sudeste 0 -- -- 95
2021-02-14 04:00:00 4.3 2 Sudeste 8 Sudeste 0 -- -- 93
2021-02-14 03:00:00 4.8 0 Calma 13 Sudeste 0 -- -- 90
2021-02-14 02:00:00 5.2 8 Sudeste 17 Noroeste 0 -- -- 88
2021-02-14 01:00:00 5.7 5 Sudeste 11 Sudeste 0 -- -- 89
2021-02-14 00:00:00 5.2 7 Sudeste 14 Sudeste 0 -- -- 90
2021-02-13 23:00:00 4.5 6 Sudeste 10 Este 0 -- -- 94
2021-02-13 22:00:00 5.1 4 Sudeste 8 Sudeste 0 -- -- 92
2021-02-13 21:00:00 6.6 0 Calma 12 Este 0 -- -- 88
2021-02-13 20:00:00 7.9 6 Sudeste 10 Sudeste 0 -- -- 85
2021-02-13 19:00:00 9.3 5 Sudeste 9 Sur 0 -- -- 84
2021-02-13 18:00:00 12.3 4 Norte 8 Oeste 0 -- -- 75
2021-02-13 17:00:00 13.4 4 Noroeste 13 Norte 0 -- -- 69
2021-02-13 16:00:00 13.3 6 Norte 11 Norte 0 -- -- 68
2021-02-13 15:00:00 14.4 3 Sur 9 Sudeste 0 -- -- 62
2021-02-13 14:00:00 14.6 4 Sur 9 Sudeste 0 -- -- 60
2021-02-13 13:00:00 11.1 4 Sudeste 9 Sudeste 0 -- -- 72
2021-02-13 08:00:00 -- -- -- -- -- -- -- -- --
2021-02-13 07:00:00 3.5 4 Sudeste 11 Sudeste 0 -- -- 88
2021-02-13 06:00:00 3.2 0 Calma 10 Sudeste 0 -- -- 90
2021-02-13 05:00:00 3.4 2 Sudeste 9 Este 0 -- -- 89
2021-02-13 04:00:00 3.9 8 Sudeste 12 Sudeste 0 -- -- 86
2021-02-13 03:00:00 3.1 4 Sudeste 12 Sudeste 0 -- -- 91
2021-02-13 02:00:00 3.1 5 Sudeste 10 Este 0 -- -- 90
2021-02-13 01:00:00 3.6 6 Sudeste 10 Sudeste 0 -- -- 92
2021-02-13 00:00:00 4.3 6 Sudeste 9 Sudeste 0 -- -- 91
2021-02-12 23:00:00 4.4 0 Calma 9 Este 0 -- -- 92
2021-02-12 22:00:00 4.5 7 Sudeste 10 Sudeste 0 -- -- 92
2021-02-12 21:00:00 5 4 Sudeste 9 Sudeste 0 -- -- 92
2021-02-12 20:00:00 5.6 6 Este 9 Sudeste 0 -- -- 88
2021-02-12 19:00:00 6.4 5 Sudeste 13 Este 0 -- -- 88
2021-02-12 18:00:00 7.4 4 Sudeste 9 Sudeste 0 -- -- 86
2021-02-12 17:00:00 9.1 4 Sudeste 16 Norte 0 -- -- 82
2021-02-12 16:00:00 10.9 6 Norte 17 Norte 0 -- -- 72
2021-02-12 15:00:00 10.5 8 Norte 21 Norte 0 -- -- 75
2021-02-12 14:00:00 9.7 8 Norte 18 Noroeste 0 -- -- 81
2021-02-12 13:00:00 8.7 7 Norte 12 Norte 0 -- -- 89
2021-02-12 12:00:00 7.8 6 Norte 13 Norte 1.2 -- -- 96
2021-02-12 11:00:00 7 5 Noroeste 6 Noroeste 1 -- -- 99
2021-02-12 10:00:00 6.6 0 Calma 6 Sudeste 0.8 -- -- 98
2021-02-12 09:00:00 6.8 0 Calma 12 Norte 3.4 -- -- 98
2021-02-12 08:00:00 6.9 4 Norte 9 Noroeste 2.6 -- -- 99
2021-02-12 07:00:00 7.3 3 Sudeste 26 Noroeste 4.4 -- -- 97
2021-02-12 06:00:00 7.4 0 Calma 9 Sudeste 0.2 -- -- 98
2021-02-12 05:00:00 7.7 4 Sudeste 7 Sudeste 0.2 -- -- 98
2021-02-12 04:00:00 8.3 0 Calma 6 Sudeste 0 -- -- 99
2021-02-12 03:00:00 8.6 0 Calma 4 Sur 0.8 -- -- 99
2021-02-12 02:00:00 8.9 6 Norte 9 Norte 3.6 -- -- 98
2021-02-12 01:00:00 9.3 3 Noroeste 17 Norte 0.8 -- -- 96
2021-02-12 00:00:00 9.6 4 Sudeste 13 Sudeste 0.4 -- -- 93
2021-02-11 23:00:00 10.4 6 Sudeste 14 Sudeste 0 -- -- 86
2021-02-11 22:00:00 10 6 Sudeste 11 Sudeste 0 -- -- 90
2021-02-11 21:00:00 9.9 3 Sudeste 10 Nordeste 0 -- -- 91
2021-02-11 20:00:00 10.8 4 Sudeste 10 Este 0 -- -- 81
2021-02-11 19:00:00 10.5 6 Sudeste 11 Sudeste 0 -- -- 78
2021-02-11 18:00:00 11.6 5 Sudeste 9 Sudeste 0 -- -- 74
2021-02-11 17:00:00 12.7 3 Este 17 Sudeste 0 -- -- 66
2021-02-11 16:00:00 13.3 5 Sudeste 29 Sudeste 0 -- -- 62
2021-02-11 15:00:00 14.4 6 Norte 19 Norte 0 -- -- 58
2021-02-11 14:00:00 14 10 Norte 22 Noroeste 0 -- -- 60
2021-02-11 13:00:00 13.6 8 Norte 28 Este 0 -- -- 63
2021-02-11 12:00:00 13.1 9 Este 41 Este 0 -- -- 62
2021-02-11 11:00:00 12.4 5 Sudeste 26 Sudeste 0 -- -- 66
2021-02-11 10:00:00 12.2 10 Sudeste 31 Sudeste 0 -- -- 62
2021-02-11 09:00:00 11.3 9 Sur 25 Sur 0 -- -- 61
2021-02-11 08:00:00 10.7 3 Noroeste 25 Este 0 -- -- 68
2021-02-11 07:00:00 8.9 8 Sudeste 18 Sudeste 0 -- -- 79
2021-02-11 06:00:00 9.1 8 Sudeste 15 Este 0 -- -- 75
2021-02-11 05:00:00 9.9 7 Este 18 Sudeste 0 -- -- 71
2021-02-11 04:00:00 10.3 6 Sudeste 19 Sudeste 0 -- -- 67
2021-02-11 03:00:00 8.7 5 Este 10 Nordeste 0 -- -- 69
2021-02-11 02:00:00 7.9 4 Sudeste 15 Sudeste 0 -- -- 76
2021-02-11 01:00:00 7.9 6 Sudeste 14 Sudeste 0 -- -- 63
2021-02-11 00:00:00 5.8 2 Sudeste 8 Sudeste 0 -- -- 81
2021-02-10 23:00:00 5.2 4 Sudeste 12 Sudeste 0 -- -- 86
2021-02-10 22:00:00 5.3 3 Sudeste 12 Sudeste 0 -- -- 87
2021-02-10 21:00:00 5.4 4 Sudeste 8 Sudeste 0 -- -- 86
2021-02-10 20:00:00 6 4 Sudeste 9 Sudeste 0 -- -- 83
2021-02-10 19:00:00 6.4 7 Sudeste 10 Sudeste 0 -- -- 80
2021-02-10 18:00:00 7.5 6 Sudeste 10 Sudeste 0 -- -- 77
2021-02-10 17:00:00 6.8 6 Sudeste 9 Sudeste 0 -- -- 77
2021-02-10 16:00:00 8.2 2 Sur 5 Sudoeste 0 -- -- 70
2021-02-10 15:00:00 10.8 3 Sur 6 Sudoeste 0 -- -- 55
2021-02-10 14:00:00 11.6 3 Sudoeste 12 Noroeste 0 -- -- 51
2021-02-10 13:00:00 11 7 Noroeste 14 Noroeste 0 -- -- 57
2021-02-10 12:00:00 9.9 4 Noroeste 13 Noroeste 0 -- -- 58
2021-02-10 11:00:00 7.1 4 Norte 10 Norte 0 -- -- 65
2021-02-10 10:00:00 4.8 3 Nordeste 9 Nordeste 0 -- -- 76
2021-02-10 09:00:00 3.2 3 Noroeste 6 Sudeste 0 -- -- 96
2021-02-10 08:00:00 2.7 3 Sudeste 7 Sudeste 0 -- -- 98
2021-02-10 07:00:00 2.4 0 Calma 8 Oeste 0 -- -- 95
2021-02-10 06:00:00 3.2 0 Calma 5 Sudeste 0 -- -- 96
2021-02-10 05:00:00 3.1 4 Sudeste 7 Sudeste 0 -- -- 96
2021-02-10 04:00:00 3.1 0 Calma 8 Noroeste 0 -- -- 93
2021-02-10 03:00:00 4.8 2 Noroeste 6 Noroeste 0.4 -- -- 86
2021-02-10 02:00:00 6 7 Sudeste 20 Sur 0 -- -- 68
2021-02-10 01:00:00 6.3 9 Sudeste 35 Sudeste 0 -- -- 65
2021-02-10 00:00:00 5.4 6 Sudeste 17 Sudeste 0 -- -- 64
2021-02-09 23:00:00 4.3 3 Este 14 Este 0 -- -- 73
2021-02-09 22:00:00 4.4 3 Sudeste 9 Sudeste 0 -- -- 80
2021-02-09 21:00:00 4.9 3 Sudoeste 14 Nordeste 0 -- -- 75
2021-02-09 20:00:00 5.5 4 Sudeste 22 Este 0 -- -- 76
2021-02-09 19:00:00 6.8 8 Este 20 Este 0 -- -- 64
2021-02-09 18:00:00 7.5 4 Oeste 23 Sudeste 0 -- -- 59
2021-02-09 17:00:00 8 8 Sudeste 20 Este 0 -- -- 56
2021-02-09 16:00:00 8.3 5 Sur 36 Norte 0 -- -- 52
2021-02-09 15:00:00 10.5 12 Noroeste 30 Norte 0 -- -- 43
2021-02-09 14:00:00 9.7 7 Este 35 Sudeste 0 -- -- 49
2021-02-09 13:00:00 8.2 9 Sudeste 35 Este 0 -- -- 56
2021-02-09 12:00:00 6.3 5 Nordeste 20 Noroeste 1.4 -- -- 89
2021-02-09 11:00:00 6.9 4 Este 9 Sudeste 0.4 -- -- 91
2021-02-09 10:00:00 7.2 4 Sudeste 20 Sudeste 0.2 -- -- 86
2021-02-09 09:00:00 8.3 10 Este 27 Sur 0.2 -- -- 70
2021-02-09 08:00:00 8 6 Sudeste 30 Sudeste 0 -- -- 70
2021-02-09 07:00:00 7.7 7 Este 37 Este 0.2 -- -- 69
2021-02-09 06:00:00 7.4 9 Sudeste 31 Sur 0 -- -- 70
2021-02-09 05:00:00 7.6 10 Sudeste 30 Sudeste 0 -- -- 67
2021-02-09 04:00:00 8.3 6 Sudeste 29 Sur 0 -- -- 62
2021-02-09 03:00:00 8.2 10 Sudeste 27 Sudeste 0 -- -- 64
2021-02-09 02:00:00 8 4 Sudeste 21 Este 0 -- -- 64
2021-02-09 01:00:00 6.9 7 Sudeste 28 Este 0 -- -- 63
2021-02-09 00:00:00 4.7 7 Sudeste 10 Sudeste 0 -- -- 82
2021-02-08 23:00:00 4.4 3 Sudeste 10 Sudeste 0 -- -- 84
2021-02-08 22:00:00 4.4 5 Sudeste 12 Sudeste 0 -- -- 82
2021-02-08 21:00:00 5 6 Sudeste 10 Sudeste 0 -- -- 80
2021-02-08 20:00:00 5.8 5 Sudeste 8 Sudeste 0 -- -- 82
2021-02-08 19:00:00 6.9 3 Sudeste 10 Norte 0 -- -- 79
2021-02-08 18:00:00 8.5 5 Norte 17 Noroeste 0 -- -- 69
2021-02-08 17:00:00 9.2 5 Norte 22 Oeste 0 -- -- 63
2021-02-08 16:00:00 10.2 5 Norte 18 Noroeste 0 -- -- 56
2021-02-08 15:00:00 10.9 8 Noroeste 20 Noroeste 0 -- -- 52
2021-02-08 14:00:00 11.1 7 Norte 31 Norte 0 -- -- 51
2021-02-08 13:00:00 11.4 12 Noroeste 21 Norte 0 -- -- 50
2021-02-08 12:00:00 11.4 4 Este 17 Este 0 -- -- 53
2021-02-08 11:00:00 7.5 2 Nordeste 10 Sudeste 0 -- -- 68
2021-02-08 10:00:00 5.4 4 Este 14 Sudoeste 0 -- -- 78
2021-02-08 09:00:00 2.2 3 Sudeste 8 Sudeste 0 -- -- 90
2021-02-08 08:00:00 3 5 Sudeste 11 Este 0 -- -- 86
2021-02-08 07:00:00 4 5 Sudeste 14 Este 0 -- -- 82
2021-02-08 06:00:00 3.8 8 Sudeste 12 Sudeste 0 -- -- 85
2021-02-08 05:00:00 4.3 4 Sudeste 11 Sudeste 0 -- -- 86
2021-02-08 04:00:00 5.7 2 Sudeste 17 Noroeste 0 -- -- 84
2021-02-08 03:00:00 7.6 8 Sudeste 41 Sudeste 0 -- -- 67
2021-02-08 02:00:00 7.6 14 Este 37 Sudeste 0 -- -- 67
2021-02-08 01:00:00 7.4 14 Sudeste 42 Sudeste 0 -- -- 68
2021-02-08 00:00:00 7.7 15 Sudeste 41 Sur 0 -- -- 67
2021-02-07 23:00:00 9 13 Sudeste 33 Sudeste 0 -- -- 65
2021-02-07 22:00:00 7.7 4 Sudeste 23 Sur 0 -- -- 77
2021-02-07 21:00:00 7.7 7 Sudeste 26 Sur 0 -- -- 72
2021-02-07 20:00:00 5.9 9 Sudeste 15 Sudeste 0 -- -- 85
2021-02-07 19:00:00 5.6 4 Este 22 Sur 0 -- -- 87
2021-02-07 18:00:00 6.9 10 Sudeste 24 Sur 0 -- -- 75
2021-02-07 17:00:00 6.1 5 Este 14 Sudeste 0.4 -- -- 88
2021-02-07 16:00:00 5.8 7 Sudeste 14 Sur 1 -- -- 87
2021-02-07 15:00:00 6.1 7 Sudeste 17 Sudeste 0.4 -- -- 81
2021-02-07 14:00:00 5 6 Este 16 Sur 0.4 -- -- 87
2021-02-07 13:00:00 5.6 4 Noroeste 14 Norte 0 -- -- 70
2021-02-07 12:00:00 5.2 9 Sudeste 21 Sudeste 0 -- -- 62
2021-02-07 11:00:00 2.8 6 Este 12 Sudeste 0 -- -- 87
2021-02-07 10:00:00 0.7 2 Sudeste 8 Sur 0 -- -- 98
2021-02-07 09:00:00 -0.1 0 Calma 4 Sudoeste 0 -- -- 99
2021-02-07 08:00:00 -0.3 0 Calma 6 Este 0 -- -- 98
2021-02-07 07:00:00 -0.5 0 Calma 9 Este 0 -- -- 97
2021-02-07 06:00:00 -0.4 4 Este 12 Sudeste 0 -- -- 94
2021-02-07 05:00:00 -0.6 2 Este 6 Sudeste 0 -- -- 98
2021-02-07 04:00:00 -0.2 3 Sudeste 6 Sudeste 0 -- -- 99
2021-02-07 03:00:00 0.4 3 Sudeste 6 Este 0 -- -- 99
2021-02-07 02:00:00 1.2 0 Calma 4 Este 0.2 -- -- 99
2021-02-07 01:00:00 1.3 0 Calma 3 Sur 0 -- -- 99
2021-02-07 00:00:00 1.3 0 Calma 6 Noroeste 0 -- -- 99
2021-02-06 23:00:00 1.2 6 Norte 13 Noroeste 0.6 -- -- 99
2021-02-06 22:00:00 1.5 3 Norte 11 Norte 0.6 -- -- 98
2021-02-06 21:00:00 1.9 10 Norte 15 Noroeste 0.6 -- -- 98
2021-02-06 20:00:00 2.4 5 Norte 15 Noroeste 0.2 -- -- 97
2021-02-06 19:00:00 2.7 11 Norte 15 Norte 0.2 -- -- 97
2021-02-06 18:00:00 3.1 11 Norte 18 Norte 0.2 -- -- 98
2021-02-06 17:00:00 3.5 11 Norte 21 Noroeste 0.8 -- -- 96
2021-02-06 16:00:00 4 9 Norte 17 Norte 0.8 -- -- 97
2021-02-06 15:00:00 3.8 4 Noroeste 12 Noroeste 0.8 -- -- 95
2021-02-06 14:00:00 3.6 4 Norte 8 Noroeste 1.2 -- -- 93
2021-02-06 13:00:00 3.4 2 Noroeste 5 Norte 1.2 -- -- 92
2021-02-06 12:00:00 3 0 Calma 6 Sudeste 1 -- -- 93
2021-02-06 11:00:00 2.3 4 Sudeste 6 Sur 0.8 -- -- 97
2021-02-06 10:00:00 2.1 3 Sudeste 8 Este 1 -- -- 97
2021-02-06 09:00:00 2.3 3 Sudeste 7 Sudeste 1.4 -- -- 98
2021-02-06 08:00:00 2.5 3 Sudeste 5 Sudeste 1.4 -- -- 99
2021-02-06 07:00:00 2.3 3 Sudeste 6 Sudeste 1 -- -- 98
2021-02-06 06:00:00 2.2 3 Sudeste 7 Sudeste 1.4 -- -- 98
2021-02-06 05:00:00 2.1 3 Sudeste 7 Sudeste 1.4 -- -- 98
2021-02-06 04:00:00 1.9 3 Sudeste 10 Sudeste 2.2 -- -- 97
2021-02-06 03:00:00 2.4 5 Sudeste 8 Sudeste 2 -- -- 96
2021-02-06 02:00:00 2.8 3 Sudeste 10 Sudeste 3.6 -- -- 96
2021-02-06 01:00:00 3.4 5 Sudeste 12 Sur 2.4 -- -- 94
2021-02-06 00:00:00 4.1 3 Sudeste 6 Sudeste 2.2 -- -- 96
2021-02-05 23:00:00 4.7 3 Sudeste 6 Sudeste 2.8 -- -- 97
2021-02-05 22:00:00 5 0 Calma 0 Calma 2 -- -- 99
2021-02-05 21:00:00 5 0 Calma 2 Noroeste 1 -- -- 99
2021-02-05 20:00:00 5.1 0 Calma 2 Noroeste 0.2 -- -- 98
2021-02-05 19:00:00 5.3 0 Calma 3 Norte 0.4 -- -- 97
2021-02-05 18:00:00 5.6 0 Calma 7 Noroeste 0.4 -- -- 94
2021-02-05 17:00:00 6.2 0 Calma 6 Noroeste 0 -- -- 91
2021-02-05 16:00:00 6.8 3 Noroeste 7 Noroeste 0.2 -- -- 86
2021-02-05 15:00:00 6.8 2 Noroeste 5 Sudeste 0 -- -- 84
2021-02-05 14:00:00 5.6 0 Calma 4 Sudeste 0.2 -- -- 87
2021-02-05 13:00:00 4.6 2 Sudeste 6 Sudeste 2.6 -- -- 96
2021-02-05 12:00:00 4.5 0 Calma 5 Sur 1 -- -- 96
2021-02-05 11:00:00 4.3 4 Este 13 Sudeste 1.8 -- -- 95
2021-02-05 10:00:00 4.8 4 Sudeste 10 Sudeste 2.4 -- -- 99
2021-02-05 09:00:00 4.7 0 Calma 4 Sudeste 0.2 -- -- 100
2021-02-05 08:00:00 4.6 0 Calma 3 Noroeste 0.2 -- -- 99
2021-02-05 07:00:00 4.6 0 Calma 2 Este 0.2 -- -- 99
2021-02-05 06:00:00 4.7 0 Calma 8 Sudeste 0.4 -- -- 98
2021-02-05 05:00:00 4.6 0 Calma 5 Sudeste 0.6 -- -- 97
2021-02-05 04:00:00 4.4 3 Sudeste 8 Noroeste 0 -- -- 96
2021-02-05 03:00:00 4.7 3 Sur 8 Sudeste 0 -- -- 95
2021-02-05 02:00:00 4.7 0 Calma 9 Sudeste 0 -- -- 94
2021-02-05 01:00:00 4.1 2 Sudeste 5 Sudeste 0 -- -- 96
2021-02-05 00:00:00 4.2 4 Sudeste 7 Sur 0 -- -- 94
2021-02-04 23:00:00 5.2 4 Sudeste 7 Sudeste 0 -- -- 93
2021-02-04 22:00:00 5.5 2 Sudeste 6 Sudeste 0 -- -- 93
2021-02-04 21:00:00 5.9 0 Calma 5 Sudeste 0 -- -- 92
2021-02-04 20:00:00 6.2 0 Calma 5 Este 0 -- -- 90
2021-02-04 19:00:00 6.7 3 Sudeste 6 Este 0 -- -- 88
2021-02-04 18:00:00 7.5 0 Calma 4 Sudeste 0 -- -- 85
2021-02-04 17:00:00 8.1 2 Sudoeste 5 Este 0 -- -- 81
2021-02-04 16:00:00 8.1 3 Sudeste 14 Sur 0.2 -- -- 75
2021-02-04 15:00:00 9 4 Este 15 Sur 0 -- -- 73
2021-02-04 14:00:00 9.8 7 Sudeste 24 Sudeste 0 -- -- 57
2021-02-04 13:00:00 9.7 8 Sudeste 23 Sur 0 -- -- 57
2021-02-04 12:00:00 9.7 6 Sudeste 18 Sudeste 0 -- -- 58
2021-02-04 11:00:00 9.4 8 Sudeste 24 Sur 0 -- -- 59
2021-02-04 10:00:00 8.8 3 Este 21 Este 0 -- -- 63
2021-02-04 09:00:00 8.4 10 Sudeste 21 Sudeste 0 -- -- 63
2021-02-04 08:00:00 5.5 3 Sudeste 12 Sur 0 -- -- 83
2021-02-04 07:00:00 5.7 2 Sur 7 Sudeste 0 -- -- 84
2021-02-04 06:00:00 6.6 5 Este 10 Sur 0 -- -- 73
2021-02-04 05:00:00 6.2 3 Nordeste 12 Sur 0 -- -- 75
2021-02-04 04:00:00 6.7 4 Norte 11 Noroeste 0 -- -- 72
2021-02-04 03:00:00 8.4 4 Norte 17 Norte 0 -- -- 62
2021-02-04 02:00:00 5.9 0 Calma 9 Sudeste 0 -- -- 81
2021-02-04 01:00:00 6.2 2 Nordeste 7 Noroeste 0 -- -- 82
2021-02-04 00:00:00 8.3 3 Sudeste 29 Este 0 -- -- 71